sensor_id;sensor_type;location;lat;lon;timestamp;P1;durP1;ratioP1;P2;durP2;ratioP2
31848;SDS011;18414;59.352;18.152;2023-03-21T00:01:11;11.30;;;2.60;;
31848;SDS011;18414;59.352;18.152;2023-03-21T00:03:37;5.20;;;2.47;;
31848;SDS011;18414;59.352;18.152;2023-03-21T00:06:04;6.70;;;2.40;;
31848;SDS011;18414;59.352;18.152;2023-03-21T00:08:30;5.43;;;2.67;;
31848;SDS011;18414;59.352;18.152;2023-03-21T00:10:56;4.53;;;3.07;;
31848;SDS011;18414;59.352;18.152;2023-03-21T00:13:22;10.20;;;3.03;;
31848;SDS011;18414;59.352;18.152;2023-03-21T00:15:47;8.80;;;2.83;;
31848;SDS011;18414;59.352;18.152;2023-03-21T00:18:18;11.90;;;2.50;;
31848;SDS011;18414;59.352;18.152;2023-03-21T00:20:44;8.47;;;3.20;;
31848;SDS011;18414;59.352;18.152;2023-03-21T00:23:20;7.57;;;2.70;;
31848;SDS011;18414;59.352;18.152;2023-03-21T00:25:45;6.07;;;3.20;;
31848;SDS011;18414;59.352;18.152;2023-03-21T00:28:11;3.47;;;2.67;;
31848;SDS011;18414;59.352;18.152;2023-03-21T00:30:38;5.30;;;3.33;;
31848;SDS011;18414;59.352;18.152;2023-03-21T00:33:04;5.47;;;2.57;;
31848;SDS011;18414;59.352;18.152;2023-03-21T00:35:29;8.30;;;3.17;;
31848;SDS011;18414;59.352;18.152;2023-03-21T00:37:55;14.67;;;3.40;;
31848;SDS011;18414;59.352;18.152;2023-03-21T00:40:20;7.50;;;3.47;;
31848;SDS011;18414;59.352;18.152;2023-03-21T00:42:46;10.50;;;3.83;;
31848;SDS011;18414;59.352;18.152;2023-03-21T00:45:11;7.70;;;3.40;;
31848;SDS011;18414;59.352;18.152;2023-03-21T00:47:36;66.00;;;4.40;;
31848;SDS011;18414;59.352;18.152;2023-03-21T00:50:02;16.00;;;3.73;;
31848;SDS011;18414;59.352;18.152;2023-03-21T00:52:28;16.10;;;3.90;;
31848;SDS011;18414;59.352;18.152;2023-03-21T00:54:55;61.23;;;4.67;;
31848;SDS011;18414;59.352;18.152;2023-03-21T00:57:20;114.27;;;5.37;;
31848;SDS011;18414;59.352;18.152;2023-03-21T00:59:45;47.67;;;4.23;;
31848;SDS011;18414;59.352;18.152;2023-03-21T01:02:11;54.13;;;4.83;;
31848;SDS011;18414;59.352;18.152;2023-03-21T01:04:38;38.90;;;4.73;;
31848;SDS011;18414;59.352;18.152;2023-03-21T01:07:04;35.17;;;4.83;;
31848;SDS011;18414;59.352;18.152;2023-03-21T01:09:29;32.47;;;4.17;;
31848;SDS011;18414;59.352;18.152;2023-03-21T01:11:55;38.67;;;4.10;;
31848;SDS011;18414;59.352;18.152;2023-03-21T01:14:21;17.93;;;2.97;;
31848;SDS011;18414;59.352;18.152;2023-03-21T01:16:47;9.37;;;3.17;;
31848;SDS011;18414;59.352;18.152;2023-03-21T01:19:14;27.33;;;2.83;;
31848;SDS011;18414;59.352;18.152;2023-03-21T01:21:41;12.47;;;2.23;;
31848;SDS011;18414;59.352;18.152;2023-03-21T01:24:07;20.27;;;2.50;;
31848;SDS011;18414;59.352;18.152;2023-03-21T01:26:33;11.53;;;2.60;;
31848;SDS011;18414;59.352;18.152;2023-03-21T01:28:58;7.63;;;2.60;;
31848;SDS011;18414;59.352;18.152;2023-03-21T01:31:23;12.70;;;2.40;;
31848;SDS011;18414;59.352;18.152;2023-03-21T01:33:50;28.43;;;2.43;;
31848;SDS011;18414;59.352;18.152;2023-03-21T01:36:20;43.93;;;3.03;;
31848;SDS011;18414;59.352;18.152;2023-03-21T01:38:46;10.30;;;2.53;;
31848;SDS011;18414;59.352;18.152;2023-03-21T01:43:55;28.00;;;3.30;;
31848;SDS011;18414;59.352;18.152;2023-03-21T01:46:25;23.10;;;2.80;;
31848;SDS011;18414;59.352;18.152;2023-03-21T01:48:54;12.93;;;2.60;;
31848;SDS011;18414;59.352;18.152;2023-03-21T01:51:25;19.03;;;2.60;;
31848;SDS011;18414;59.352;18.152;2023-03-21T01:53:51;29.43;;;3.43;;
31848;SDS011;18414;59.352;18.152;2023-03-21T01:56:38;7.30;;;2.10;;
31848;SDS011;18414;59.352;18.152;2023-03-21T02:01:55;9.43;;;2.13;;
31848;SDS011;18414;59.352;18.152;2023-03-21T02:04:21;27.37;;;2.43;;
31848;SDS011;18414;59.352;18.152;2023-03-21T02:06:54;8.67;;;1.50;;
31848;SDS011;18414;59.352;18.152;2023-03-21T02:09:23;29.83;;;2.10;;
31848;SDS011;18414;59.352;18.152;2023-03-21T02:11:50;6.00;;;1.50;;
31848;SDS011;18414;59.352;18.152;2023-03-21T02:14:17;4.40;;;0.93;;
31848;SDS011;18414;59.352;18.152;2023-03-21T02:16:47;8.07;;;1.40;;
31848;SDS011;18414;59.352;18.152;2023-03-21T02:22:03;1.40;;;1.30;;
31848;SDS011;18414;59.352;18.152;2023-03-21T02:24:55;6.07;;;1.27;;
31848;SDS011;18414;59.352;18.152;2023-03-21T02:27:29;3.70;;;1.60;;
31848;SDS011;18414;59.352;18.152;2023-03-21T02:41:04;3.33;;;1.40;;
31848;SDS011;18414;59.352;18.152;2023-03-21T02:46:20;6.37;;;1.73;;
31848;SDS011;18414;59.352;18.152;2023-03-21T02:51:27;17.83;;;2.70;;
31848;SDS011;18414;59.352;18.152;2023-03-21T02:53:57;16.13;;;2.43;;
31848;SDS011;18414;59.352;18.152;2023-03-21T02:56:24;13.20;;;2.20;;
31848;SDS011;18414;59.352;18.152;2023-03-21T02:58:51;7.20;;;2.00;;
31848;SDS011;18414;59.352;18.152;2023-03-21T03:01:17;11.53;;;2.07;;
31848;SDS011;18414;59.352;18.152;2023-03-21T03:03:42;9.97;;;2.33;;
31848;SDS011;18414;59.352;18.152;2023-03-21T03:06:18;16.97;;;2.30;;
31848;SDS011;18414;59.352;18.152;2023-03-21T03:08:52;11.10;;;1.90;;
31848;SDS011;18414;59.352;18.152;2023-03-21T03:11:32;6.27;;;1.67;;
31848;SDS011;18414;59.352;18.152;2023-03-21T03:19:27;8.07;;;2.07;;
31848;SDS011;18414;59.352;18.152;2023-03-21T03:22:00;14.63;;;2.27;;
31848;SDS011;18414;59.352;18.152;2023-03-21T03:24:32;5.03;;;2.10;;
31848;SDS011;18414;59.352;18.152;2023-03-21T03:27:35;5.30;;;1.77;;
31848;SDS011;18414;59.352;18.152;2023-03-21T03:29:55;12.93;;;2.43;;
31848;SDS011;18414;59.352;18.152;2023-03-21T03:32:24;11.03;;;2.37;;
31848;SDS011;18414;59.352;18.152;2023-03-21T03:34:54;4.33;;;2.43;;
31848;SDS011;18414;59.352;18.152;2023-03-21T03:37:21;14.50;;;2.70;;
31848;SDS011;18414;59.352;18.152;2023-03-21T03:39:59;12.57;;;2.70;;
31848;SDS011;18414;59.352;18.152;2023-03-21T03:42:39;8.87;;;1.67;;
31848;SDS011;18414;59.352;18.152;2023-03-21T03:45:32;27.37;;;2.87;;
31848;SDS011;18414;59.352;18.152;2023-03-21T03:48:12;17.50;;;2.80;;
31848;SDS011;18414;59.352;18.152;2023-03-21T03:50:43;13.97;;;2.47;;
31848;SDS011;18414;59.352;18.152;2023-03-21T03:53:56;7.70;;;1.87;;
31848;SDS011;18414;59.352;18.152;2023-03-21T03:56:05;4.67;;;2.03;;
31848;SDS011;18414;59.352;18.152;2023-03-21T03:58:31;3.97;;;1.90;;
31848;SDS011;18414;59.352;18.152;2023-03-21T04:00:57;11.43;;;1.97;;
31848;SDS011;18414;59.352;18.152;2023-03-21T04:03:23;12.87;;;2.13;;
31848;SDS011;18414;59.352;18.152;2023-03-21T04:05:48;8.83;;;1.80;;
31848;SDS011;18414;59.352;18.152;2023-03-21T04:08:14;12.53;;;2.30;;
31848;SDS011;18414;59.352;18.152;2023-03-21T04:10:41;10.30;;;2.20;;
31848;SDS011;18414;59.352;18.152;2023-03-21T04:13:07;17.77;;;2.30;;
31848;SDS011;18414;59.352;18.152;2023-03-21T04:15:33;5.27;;;2.30;;
31848;SDS011;18414;59.352;18.152;2023-03-21T04:17:58;10.50;;;2.30;;
31848;SDS011;18414;59.352;18.152;2023-03-21T04:20:24;7.50;;;2.13;;
31848;SDS011;18414;59.352;18.152;2023-03-21T04:22:49;10.03;;;2.30;;
31848;SDS011;18414;59.352;18.152;2023-03-21T04:25:15;6.97;;;2.53;;
31848;SDS011;18414;59.352;18.152;2023-03-21T04:27:41;9.17;;;2.40;;
31848;SDS011;18414;59.352;18.152;2023-03-21T04:30:06;6.20;;;2.30;;
31848;SDS011;18414;59.352;18.152;2023-03-21T04:32:35;11.10;;;2.53;;
31848;SDS011;18414;59.352;18.152;2023-03-21T04:35:03;8.53;;;2.30;;
31848;SDS011;18414;59.352;18.152;2023-03-21T04:37:29;11.13;;;2.60;;
31848;SDS011;18414;59.352;18.152;2023-03-21T04:39:57;3.30;;;1.90;;
31848;SDS011;18414;59.352;18.152;2023-03-21T04:42:23;3.83;;;2.10;;
31848;SDS011;18414;59.352;18.152;2023-03-21T04:44:48;6.13;;;2.10;;
31848;SDS011;18414;59.352;18.152;2023-03-21T04:47:14;2.37;;;1.97;;
31848;SDS011;18414;59.352;18.152;2023-03-21T04:49:44;4.77;;;3.00;;
31848;SDS011;18414;59.352;18.152;2023-03-21T04:52:12;10.23;;;2.33;;
31848;SDS011;18414;59.352;18.152;2023-03-21T04:54:38;2.87;;;2.30;;
31848;SDS011;18414;59.352;18.152;2023-03-21T04:57:03;4.03;;;2.23;;
31848;SDS011;18414;59.352;18.152;2023-03-21T04:59:28;5.27;;;2.30;;
31848;SDS011;18414;59.352;18.152;2023-03-21T05:01:54;6.50;;;2.23;;
31848;SDS011;18414;59.352;18.152;2023-03-21T05:04:20;20.63;;;2.73;;
31848;SDS011;18414;59.352;18.152;2023-03-21T05:06:46;3.23;;;1.73;;
31848;SDS011;18414;59.352;18.152;2023-03-21T05:09:12;13.63;;;2.33;;
31848;SDS011;18414;59.352;18.152;2023-03-21T05:11:38;7.83;;;2.50;;
31848;SDS011;18414;59.352;18.152;2023-03-21T05:14:05;18.07;;;3.20;;
31848;SDS011;18414;59.352;18.152;2023-03-21T05:16:31;21.03;;;3.40;;
31848;SDS011;18414;59.352;18.152;2023-03-21T05:18:59;7.80;;;3.00;;
31848;SDS011;18414;59.352;18.152;2023-03-21T05:21:28;23.23;;;3.30;;
31848;SDS011;18414;59.352;18.152;2023-03-21T05:23:54;31.67;;;3.20;;
31848;SDS011;18414;59.352;18.152;2023-03-21T05:26:20;20.27;;;3.20;;
31848;SDS011;18414;59.352;18.152;2023-03-21T05:28:46;20.57;;;3.40;;
31848;SDS011;18414;59.352;18.152;2023-03-21T05:31:13;18.50;;;3.27;;
31848;SDS011;18414;59.352;18.152;2023-03-21T05:33:40;20.17;;;2.90;;
31848;SDS011;18414;59.352;18.152;2023-03-21T05:36:09;8.10;;;3.53;;
31848;SDS011;18414;59.352;18.152;2023-03-21T05:38:34;8.83;;;3.43;;
31848;SDS011;18414;59.352;18.152;2023-03-21T05:41:00;17.63;;;3.47;;
31848;SDS011;18414;59.352;18.152;2023-03-21T05:43:25;20.90;;;3.87;;
31848;SDS011;18414;59.352;18.152;2023-03-21T05:45:50;30.03;;;3.83;;
31848;SDS011;18414;59.352;18.152;2023-03-21T05:48:16;30.00;;;3.13;;
31848;SDS011;18414;59.352;18.152;2023-03-21T05:50:41;23.43;;;3.53;;
31848;SDS011;18414;59.352;18.152;2023-03-21T05:53:07;30.03;;;3.50;;
31848;SDS011;18414;59.352;18.152;2023-03-21T05:55:32;17.33;;;3.63;;
31848;SDS011;18414;59.352;18.152;2023-03-21T05:57:57;20.10;;;3.30;;
31848;SDS011;18414;59.352;18.152;2023-03-21T06:00:23;16.20;;;3.03;;
31848;SDS011;18414;59.352;18.152;2023-03-21T06:02:49;14.20;;;3.10;;
31848;SDS011;18414;59.352;18.152;2023-03-21T06:05:15;14.60;;;3.27;;
31848;SDS011;18414;59.352;18.152;2023-03-21T06:07:40;11.07;;;3.63;;
31848;SDS011;18414;59.352;18.152;2023-03-21T06:10:06;11.27;;;3.07;;
31848;SDS011;18414;59.352;18.152;2023-03-21T06:12:31;10.90;;;3.53;;
31848;SDS011;18414;59.352;18.152;2023-03-21T06:14:57;5.93;;;3.23;;
31848;SDS011;18414;59.352;18.152;2023-03-21T06:17:23;3.67;;;2.90;;
31848;SDS011;18414;59.352;18.152;2023-03-21T06:19:50;16.23;;;3.30;;
31848;SDS011;18414;59.352;18.152;2023-03-21T06:22:15;7.10;;;3.50;;
31848;SDS011;18414;59.352;18.152;2023-03-21T06:24:41;13.77;;;3.43;;
31848;SDS011;18414;59.352;18.152;2023-03-21T06:27:06;17.43;;;3.53;;
31848;SDS011;18414;59.352;18.152;2023-03-21T06:29:32;25.90;;;3.70;;
31848;SDS011;18414;59.352;18.152;2023-03-21T06:31:57;12.43;;;3.80;;
31848;SDS011;18414;59.352;18.152;2023-03-21T06:34:23;30.07;;;3.30;;
31848;SDS011;18414;59.352;18.152;2023-03-21T06:36:48;21.20;;;3.50;;
31848;SDS011;18414;59.352;18.152;2023-03-21T06:39:16;26.77;;;3.70;;
31848;SDS011;18414;59.352;18.152;2023-03-21T06:41:41;30.03;;;3.67;;
31848;SDS011;18414;59.352;18.152;2023-03-21T06:44:06;24.90;;;3.90;;
31848;SDS011;18414;59.352;18.152;2023-03-21T06:46:32;18.33;;;3.37;;
31848;SDS011;18414;59.352;18.152;2023-03-21T06:48:57;14.60;;;3.97;;
31848;SDS011;18414;59.352;18.152;2023-03-21T06:51:22;9.13;;;3.43;;
31848;SDS011;18414;59.352;18.152;2023-03-21T06:53:49;11.47;;;3.73;;
31848;SDS011;18414;59.352;18.152;2023-03-21T06:56:14;14.53;;;4.47;;
31848;SDS011;18414;59.352;18.152;2023-03-21T06:58:40;17.17;;;5.07;;
31848;SDS011;18414;59.352;18.152;2023-03-21T07:01:05;13.17;;;4.50;;
31848;SDS011;18414;59.352;18.152;2023-03-21T07:03:32;10.30;;;3.80;;
31848;SDS011;18414;59.352;18.152;2023-03-21T07:05:58;8.13;;;3.83;;
31848;SDS011;18414;59.352;18.152;2023-03-21T07:08:27;15.10;;;4.17;;
31848;SDS011;18414;59.352;18.152;2023-03-21T07:10:54;21.43;;;4.63;;
31848;SDS011;18414;59.352;18.152;2023-03-21T07:13:20;11.07;;;4.60;;
31848;SDS011;18414;59.352;18.152;2023-03-21T07:15:45;44.38;;;7.15;;
31848;SDS011;18414;59.352;18.152;2023-03-21T07:18:10;35.17;;;5.60;;
31848;SDS011;18414;59.352;18.152;2023-03-21T07:20:36;14.93;;;4.60;;
31848;SDS011;18414;59.352;18.152;2023-03-21T07:23:04;19.13;;;4.67;;
31848;SDS011;18414;59.352;18.152;2023-03-21T07:25:31;17.93;;;5.13;;
31848;SDS011;18414;59.352;18.152;2023-03-21T07:27:56;12.67;;;5.10;;
31848;SDS011;18414;59.352;18.152;2023-03-21T07:30:21;8.63;;;5.70;;
31848;SDS011;18414;59.352;18.152;2023-03-21T07:32:47;7.10;;;4.73;;
31848;SDS011;18414;59.352;18.152;2023-03-21T07:35:14;6.67;;;4.70;;
31848;SDS011;18414;59.352;18.152;2023-03-21T07:37:40;6.47;;;4.23;;
31848;SDS011;18414;59.352;18.152;2023-03-21T07:40:06;7.67;;;4.40;;
31848;SDS011;18414;59.352;18.152;2023-03-21T07:42:37;7.90;;;4.30;;
31848;SDS011;18414;59.352;18.152;2023-03-21T07:45:03;6.43;;;3.80;;
31848;SDS011;18414;59.352;18.152;2023-03-21T07:47:30;6.43;;;3.77;;
31848;SDS011;18414;59.352;18.152;2023-03-21T07:49:55;5.87;;;3.20;;
31848;SDS011;18414;59.352;18.152;2023-03-21T07:52:21;6.27;;;3.70;;
31848;SDS011;18414;59.352;18.152;2023-03-21T07:54:46;4.57;;;3.30;;
31848;SDS011;18414;59.352;18.152;2023-03-21T07:57:11;6.37;;;3.67;;
31848;SDS011;18414;59.352;18.152;2023-03-21T07:59:37;4.40;;;3.40;;
31848;SDS011;18414;59.352;18.152;2023-03-21T08:02:02;6.27;;;3.63;;
31848;SDS011;18414;59.352;18.152;2023-03-21T08:04:27;4.33;;;3.70;;
31848;SDS011;18414;59.352;18.152;2023-03-21T08:06:53;6.33;;;3.77;;
31848;SDS011;18414;59.352;18.152;2023-03-21T08:09:18;5.43;;;4.00;;
31848;SDS011;18414;59.352;18.152;2023-03-21T08:11:44;6.60;;;5.03;;
31848;SDS011;18414;59.352;18.152;2023-03-21T08:14:09;5.53;;;4.40;;
31848;SDS011;18414;59.352;18.152;2023-03-21T08:16:34;6.97;;;4.27;;
31848;SDS011;18414;59.352;18.152;2023-03-21T08:19:00;5.40;;;4.40;;
31848;SDS011;18414;59.352;18.152;2023-03-21T08:21:25;6.20;;;4.13;;
31848;SDS011;18414;59.352;18.152;2023-03-21T08:23:51;7.13;;;4.10;;
31848;SDS011;18414;59.352;18.152;2023-03-21T08:26:17;6.30;;;4.60;;
31848;SDS011;18414;59.352;18.152;2023-03-21T08:28:43;10.07;;;4.33;;
31848;SDS011;18414;59.352;18.152;2023-03-21T08:31:09;5.67;;;4.23;;
31848;SDS011;18414;59.352;18.152;2023-03-21T08:33:35;6.77;;;4.17;;
31848;SDS011;18414;59.352;18.152;2023-03-21T08:36:01;9.30;;;6.30;;
31848;SDS011;18414;59.352;18.152;2023-03-21T08:38:27;10.13;;;6.27;;
31848;SDS011;18414;59.352;18.152;2023-03-21T08:40:57;9.57;;;5.97;;
31848;SDS011;18414;59.352;18.152;2023-03-21T08:43:26;18.13;;;8.73;;
31848;SDS011;18414;59.352;18.152;2023-03-21T08:45:53;15.00;;;7.87;;
31848;SDS011;18414;59.352;18.152;2023-03-21T08:48:19;12.30;;;8.60;;
31848;SDS011;18414;59.352;18.152;2023-03-21T08:50:45;13.00;;;7.90;;
31848;SDS011;18414;59.352;18.152;2023-03-21T08:53:10;11.20;;;7.47;;
31848;SDS011;18414;59.352;18.152;2023-03-21T08:55:36;9.47;;;7.13;;
31848;SDS011;18414;59.352;18.152;2023-03-21T08:58:01;8.73;;;6.47;;
31848;SDS011;18414;59.352;18.152;2023-03-21T09:00:27;9.43;;;6.40;;
31848;SDS011;18414;59.352;18.152;2023-03-21T09:02:53;7.90;;;4.73;;
31848;SDS011;18414;59.352;18.152;2023-03-21T09:05:18;6.80;;;3.40;;
31848;SDS011;18414;59.352;18.152;2023-03-21T09:07:45;4.57;;;3.70;;
31848;SDS011;18414;59.352;18.152;2023-03-21T09:10:15;5.13;;;2.80;;
31848;SDS011;18414;59.352;18.152;2023-03-21T09:12:41;4.93;;;2.53;;
31848;SDS011;18414;59.352;18.152;2023-03-21T09:15:08;6.53;;;2.67;;
31848;SDS011;18414;59.352;18.152;2023-03-21T09:17:36;4.00;;;2.47;;
31848;SDS011;18414;59.352;18.152;2023-03-21T09:20:06;2.77;;;2.27;;
31848;SDS011;18414;59.352;18.152;2023-03-21T09:22:35;3.23;;;2.43;;
31848;SDS011;18414;59.352;18.152;2023-03-21T09:25:02;3.07;;;2.00;;
31848;SDS011;18414;59.352;18.152;2023-03-21T09:27:28;2.43;;;2.07;;
31848;SDS011;18414;59.352;18.152;2023-03-21T09:29:53;4.10;;;2.50;;
31848;SDS011;18414;59.352;18.152;2023-03-21T09:32:19;3.63;;;2.00;;
31848;SDS011;18414;59.352;18.152;2023-03-21T09:34:45;2.97;;;2.00;;
31848;SDS011;18414;59.352;18.152;2023-03-21T09:37:12;4.27;;;2.30;;
31848;SDS011;18414;59.352;18.152;2023-03-21T09:39:41;3.67;;;2.23;;
31848;SDS011;18414;59.352;18.152;2023-03-21T09:42:28;5.03;;;1.93;;
31848;SDS011;18414;59.352;18.152;2023-03-21T09:45:14;5.33;;;1.90;;
31848;SDS011;18414;59.352;18.152;2023-03-21T09:47:44;3.10;;;1.60;;
31848;SDS011;18414;59.352;18.152;2023-03-21T09:50:21;4.63;;;1.70;;
31848;SDS011;18414;59.352;18.152;2023-03-21T09:52:56;3.50;;;1.40;;
31848;SDS011;18414;59.352;18.152;2023-03-21T09:55:24;2.70;;;1.60;;
31848;SDS011;18414;59.352;18.152;2023-03-21T09:58:03;2.37;;;1.50;;
31848;SDS011;18414;59.352;18.152;2023-03-21T10:00:32;2.57;;;1.50;;
31848;SDS011;18414;59.352;18.152;2023-03-21T10:03:02;6.07;;;1.37;;
31848;SDS011;18414;59.352;18.152;2023-03-21T10:05:30;3.93;;;1.47;;
31848;SDS011;18414;59.352;18.152;2023-03-21T10:10:47;2.10;;;1.43;;
31848;SDS011;18414;59.352;18.152;2023-03-21T10:13:16;2.50;;;1.10;;
31848;SDS011;18414;59.352;18.152;2023-03-21T10:15:45;8.03;;;1.50;;
31848;SDS011;18414;59.352;18.152;2023-03-21T10:18:29;3.90;;;1.27;;
31848;SDS011;18414;59.352;18.152;2023-03-21T10:20:55;2.72;;;1.20;;
31848;SDS011;18414;59.352;18.152;2023-03-21T10:23:21;6.43;;;0.90;;
31848;SDS011;18414;59.352;18.152;2023-03-21T10:25:54;1.93;;;1.07;;
31848;SDS011;18414;59.352;18.152;2023-03-21T10:28:32;0.93;;;0.90;;
31848;SDS011;18414;59.352;18.152;2023-03-21T10:31:02;2.80;;;1.00;;
31848;SDS011;18414;59.352;18.152;2023-03-21T10:33:33;1.17;;;0.80;;
31848;SDS011;18414;59.352;18.152;2023-03-21T10:36:01;5.20;;;0.90;;
31848;SDS011;18414;59.352;18.152;2023-03-21T10:38:30;2.13;;;1.10;;
31848;SDS011;18414;59.352;18.152;2023-03-21T10:40:55;1.33;;;0.90;;
31848;SDS011;18414;59.352;18.152;2023-03-21T10:45:54;2.40;;;0.80;;
31848;SDS011;18414;59.352;18.152;2023-03-21T10:48:19;1.30;;;0.83;;
31848;SDS011;18414;59.352;18.152;2023-03-21T10:50:49;1.77;;;0.80;;
31848;SDS011;18414;59.352;18.152;2023-03-21T10:53:20;2.37;;;0.80;;
31848;SDS011;18414;59.352;18.152;2023-03-21T10:55:49;2.13;;;0.83;;
31848;SDS011;18414;59.352;18.152;2023-03-21T10:58:20;4.43;;;0.80;;
31848;SDS011;18414;59.352;18.152;2023-03-21T11:00:49;2.13;;;0.82;;
31848;SDS011;18414;59.352;18.152;2023-03-21T11:03:29;5.87;;;0.90;;
31848;SDS011;18414;59.352;18.152;2023-03-21T11:06:01;2.87;;;0.80;;
31848;SDS011;18414;59.352;18.152;2023-03-21T11:08:32;0.77;;;0.50;;
31848;SDS011;18414;59.352;18.152;2023-03-21T11:11:11;3.60;;;0.90;;
31848;SDS011;18414;59.352;18.152;2023-03-21T11:13:44;1.80;;;0.60;;
31848;SDS011;18414;59.352;18.152;2023-03-21T11:16:11;1.53;;;0.80;;
31848;SDS011;18414;59.352;18.152;2023-03-21T11:18:41;0.90;;;0.80;;
31848;SDS011;18414;59.352;18.152;2023-03-21T11:21:09;1.90;;;0.73;;
31848;SDS011;18414;59.352;18.152;2023-03-21T11:23:39;1.83;;;0.73;;
31848;SDS011;18414;59.352;18.152;2023-03-21T11:26:08;2.97;;;0.73;;
31848;SDS011;18414;59.352;18.152;2023-03-21T11:28:36;2.00;;;0.70;;
31848;SDS011;18414;59.352;18.152;2023-03-21T11:31:03;3.13;;;0.80;;
31848;SDS011;18414;59.352;18.152;2023-03-21T11:33:34;1.10;;;0.70;;
31848;SDS011;18414;59.352;18.152;2023-03-21T11:36:06;3.83;;;0.87;;
31848;SDS011;18414;59.352;18.152;2023-03-21T11:38:51;2.83;;;1.10;;
31848;SDS011;18414;59.352;18.152;2023-03-21T11:41:28;3.37;;;0.90;;
31848;SDS011;18414;59.352;18.152;2023-03-21T11:43:54;4.00;;;0.80;;
31848;SDS011;18414;59.352;18.152;2023-03-21T11:46:25;3.47;;;0.90;;
31848;SDS011;18414;59.352;18.152;2023-03-21T11:48:52;1.42;;;0.90;;
31848;SDS011;18414;59.352;18.152;2023-03-21T11:54:01;1.53;;;0.70;;
31848;SDS011;18414;59.352;18.152;2023-03-21T11:56:47;2.90;;;0.90;;
31848;SDS011;18414;59.352;18.152;2023-03-21T12:02:17;0.80;;;0.57;;
31848;SDS011;18414;59.352;18.152;2023-03-21T12:05:18;0.67;;;0.60;;
31848;SDS011;18414;59.352;18.152;2023-03-21T12:10:56;2.37;;;0.60;;
31848;SDS011;18414;59.352;18.152;2023-03-21T12:21:41;2.67;;;0.80;;
31848;SDS011;18414;59.352;18.152;2023-03-21T12:24:17;1.23;;;0.60;;
31848;SDS011;18414;59.352;18.152;2023-03-21T12:26:54;3.33;;;0.60;;
31848;SDS011;18414;59.352;18.152;2023-03-21T12:29:45;1.40;;;0.60;;
31848;SDS011;18414;59.352;18.152;2023-03-21T12:32:28;2.40;;;1.27;;
31848;SDS011;18414;59.352;18.152;2023-03-21T12:43:39;1.13;;;0.70;;
31848;SDS011;18414;59.352;18.152;2023-03-21T12:48:45;1.03;;;0.60;;
31848;SDS011;18414;59.352;18.152;2023-03-21T12:51:15;4.27;;;1.57;;
31848;SDS011;18414;59.352;18.152;2023-03-21T12:56:46;1.10;;;0.57;;
31848;SDS011;18414;59.352;18.152;2023-03-21T13:01:37;1.87;;;0.70;;
31848;SDS011;18414;59.352;18.152;2023-03-21T13:04:15;3.97;;;0.70;;
31848;SDS011;18414;59.352;18.152;2023-03-21T13:06:52;5.17;;;0.80;;
31848;SDS011;18414;59.352;18.152;2023-03-21T13:09:21;1.03;;;0.60;;
31848;SDS011;18414;59.352;18.152;2023-03-21T13:11:53;3.87;;;1.00;;
31848;SDS011;18414;59.352;18.152;2023-03-21T13:14:23;2.93;;;0.67;;
31848;SDS011;18414;59.352;18.152;2023-03-21T13:16:53;1.33;;;0.60;;
31848;SDS011;18414;59.352;18.152;2023-03-21T13:19:27;0.67;;;0.67;;
31848;SDS011;18414;59.352;18.152;2023-03-21T13:22:05;1.00;;;0.60;;
31848;SDS011;18414;59.352;18.152;2023-03-21T13:24:38;2.50;;;0.80;;
31848;SDS011;18414;59.352;18.152;2023-03-21T13:34:59;2.83;;;0.80;;
31848;SDS011;18414;59.352;18.152;2023-03-21T13:37:30;3.73;;;0.57;;
31848;SDS011;18414;59.352;18.152;2023-03-21T13:40:01;2.87;;;0.70;;
31848;SDS011;18414;59.352;18.152;2023-03-21T13:42:33;0.60;;;0.60;;
31848;SDS011;18414;59.352;18.152;2023-03-21T13:44:59;2.20;;;0.50;;
31848;SDS011;18414;59.352;18.152;2023-03-21T13:47:32;0.60;;;0.57;;
31848;SDS011;18414;59.352;18.152;2023-03-21T13:52:43;4.10;;;0.87;;
31848;SDS011;18414;59.352;18.152;2023-03-21T13:55:28;1.77;;;0.63;;
31848;SDS011;18414;59.352;18.152;2023-03-21T13:57:54;1.53;;;0.70;;
31848;SDS011;18414;59.352;18.152;2023-03-21T14:00:29;2.23;;;0.70;;
31848;SDS011;18414;59.352;18.152;2023-03-21T14:02:56;3.30;;;0.80;;
31848;SDS011;18414;59.352;18.152;2023-03-21T14:05:24;0.73;;;0.63;;
31848;SDS011;18414;59.352;18.152;2023-03-21T14:07:55;1.47;;;0.70;;
31848;SDS011;18414;59.352;18.152;2023-03-21T14:10:24;1.67;;;0.70;;
31848;SDS011;18414;59.352;18.152;2023-03-21T14:12:58;1.47;;;0.70;;
31848;SDS011;18414;59.352;18.152;2023-03-21T14:15:28;0.60;;;0.50;;
31848;SDS011;18414;59.352;18.152;2023-03-21T14:18:04;0.93;;;0.60;;
31848;SDS011;18414;59.352;18.152;2023-03-21T14:20:35;2.63;;;0.50;;
31848;SDS011;18414;59.352;18.152;2023-03-21T14:23:04;0.50;;;0.50;;
31848;SDS011;18414;59.352;18.152;2023-03-21T14:25:35;1.47;;;0.57;;
31848;SDS011;18414;59.352;18.152;2023-03-21T14:28:02;1.87;;;0.50;;
31848;SDS011;18414;59.352;18.152;2023-03-21T14:30:31;2.93;;;0.60;;
31848;SDS011;18414;59.352;18.152;2023-03-21T14:33:04;2.20;;;0.43;;
31848;SDS011;18414;59.352;18.152;2023-03-21T14:35:50;2.30;;;0.60;;
31848;SDS011;18414;59.352;18.152;2023-03-21T14:38:20;1.20;;;0.60;;
31848;SDS011;18414;59.352;18.152;2023-03-21T14:40:51;1.17;;;0.50;;
31848;SDS011;18414;59.352;18.152;2023-03-21T14:43:19;1.13;;;0.50;;
31848;SDS011;18414;59.352;18.152;2023-03-21T14:45:46;4.43;;;0.70;;
31848;SDS011;18414;59.352;18.152;2023-03-21T14:48:13;0.60;;;0.60;;
31848;SDS011;18414;59.352;18.152;2023-03-21T14:50:50;1.73;;;0.53;;
31848;SDS011;18414;59.352;18.152;2023-03-21T14:53:20;0.60;;;0.50;;
31848;SDS011;18414;59.352;18.152;2023-03-21T14:58:26;0.93;;;0.60;;
31848;SDS011;18414;59.352;18.152;2023-03-21T15:00:53;2.17;;;0.60;;
31848;SDS011;18414;59.352;18.152;2023-03-21T15:03:21;3.70;;;0.60;;
31848;SDS011;18414;59.352;18.152;2023-03-21T15:05:48;1.37;;;0.73;;
31848;SDS011;18414;59.352;18.152;2023-03-21T15:08:15;6.40;;;0.77;;
31848;SDS011;18414;59.352;18.152;2023-03-21T15:10:52;2.33;;;0.70;;
31848;SDS011;18414;59.352;18.152;2023-03-21T15:13:26;7.73;;;0.80;;
31848;SDS011;18414;59.352;18.152;2023-03-21T15:15:53;2.87;;;0.77;;
31848;SDS011;18414;59.352;18.152;2023-03-21T15:18:24;1.73;;;0.53;;
31848;SDS011;18414;59.352;18.152;2023-03-21T15:20:52;8.10;;;0.73;;
31848;SDS011;18414;59.352;18.152;2023-03-21T15:23:40;2.97;;;0.70;;
31848;SDS011;18414;59.352;18.152;2023-03-21T15:26:05;0.77;;;0.50;;
31848;SDS011;18414;59.352;18.152;2023-03-21T15:28:34;4.43;;;0.80;;
31848;SDS011;18414;59.352;18.152;2023-03-21T15:31:00;0.93;;;0.60;;
31848;SDS011;18414;59.352;18.152;2023-03-21T15:33:26;1.70;;;0.70;;
31848;SDS011;18414;59.352;18.152;2023-03-21T15:35:52;1.37;;;0.80;;
31848;SDS011;18414;59.352;18.152;2023-03-21T15:38:23;5.67;;;0.70;;
31848;SDS011;18414;59.352;18.152;2023-03-21T15:43:49;2.90;;;0.70;;
31848;SDS011;18414;59.352;18.152;2023-03-21T15:46:30;3.70;;;0.90;;
31848;SDS011;18414;59.352;18.152;2023-03-21T15:51:32;3.23;;;0.80;;
31848;SDS011;18414;59.352;18.152;2023-03-21T15:53:58;7.23;;;1.20;;
31848;SDS011;18414;59.352;18.152;2023-03-21T15:56:27;2.47;;;1.07;;
31848;SDS011;18414;59.352;18.152;2023-03-21T15:58:58;5.83;;;1.03;;
31848;SDS011;18414;59.352;18.152;2023-03-21T16:01:26;1.33;;;0.80;;
31848;SDS011;18414;59.352;18.152;2023-03-21T16:03:55;2.90;;;0.90;;
31848;SDS011;18414;59.352;18.152;2023-03-21T16:06:32;5.30;;;1.37;;
31848;SDS011;18414;59.352;18.152;2023-03-21T16:11:41;4.33;;;0.70;;